Time;durP1;ratioP1;P1;durP2;ratioP2;P2;SDS_P1;SDS_P2;PMS_P1;PMS_P2;Temp;Humidity;BMP_temperature;BMP_pressure;BME280_temperature;BME280_humidity;BME280_pressure;Samples;Min_cycle;Max_cycle;Signal;HPM_P1;HPM_P2
2022/09/13 00:01:07;;;;;;;3.70;2.03;;;20.60;94.90;;;;;;5010747;28;20199;-74
2022/09/13 00:03:33;;;;;;;3.83;2.43;;;20.60;95.00;;;;;;5010900;28;20159;-74
2022/09/13 00:06:07;;;;;;;3.13;2.00;;;20.60;95.30;;;;;;5010478;28;20569;-73
2022/09/13 00:08:32;;;;;;;2.90;2.23;;;20.60;95.70;;;;;;5011228;28;20186;-74
2022/09/13 00:10:58;;;;;;;4.80;2.30;;;20.60;95.50;;;;;;5010613;28;20585;-74
2022/09/13 00:13:24;;;;;;;3.00;2.13;;;20.60;95.70;;;;;;5011062;28;20640;-74
2022/09/13 00:15:50;;;;;;;4.53;2.00;;;20.60;95.70;;;;;;5011101;28;20174;-73
2022/09/13 00:18:17;;;;;;;4.77;2.37;;;20.50;95.80;;;;;;5012610;28;20170;-74
2022/09/13 00:20:44;;;;;;;2.57;1.80;;;20.50;96.00;;;;;;5014189;28;20277;-74
2022/09/13 00:23:10;;;;;;;4.20;1.90;;;20.50;96.10;;;;;;5014221;28;20609;-74
2022/09/13 00:25:37;;;;;;;5.33;2.47;;;20.50;96.10;;;;;;5014673;28;20585;-73
2022/09/13 00:28:04;;;;;;;3.10;2.17;;;20.50;96.20;;;;;;5014126;28;20712;-73
2022/09/13 00:30:30;;;;;;;2.83;1.93;;;20.50;96.40;;;;;;4996027;28;20605;-73
2022/09/13 00:32:56;;;;;;;3.93;1.93;;;20.50;96.50;;;;;;5013897;28;20624;-73
2022/09/13 00:35:22;;;;;;;3.93;2.50;;;20.40;96.60;;;;;;5014311;28;20561;-73
2022/09/13 00:37:48;;;;;;;2.17;1.47;;;20.40;96.70;;;;;;5014187;28;20170;-73
2022/09/13 00:40:14;;;;;;;2.40;1.90;;;20.40;96.80;;;;;;5009871;28;20610;-73
2022/09/13 00:42:40;;;;;;;3.37;1.90;;;20.40;97.00;;;;;;5013881;28;20571;-73
2022/09/13 00:45:09;;;;;;;3.07;2.47;;;20.30;97.00;;;;;;5013924;28;20628;-73
2022/09/13 00:47:53;;;;;;;2.67;1.60;;;20.30;97.20;;;;;;5013868;28;20213;-73
2022/09/13 00:50:41;;;;;;;2.10;1.80;;;20.30;97.60;;;;;;5013674;28;20596;-73
2022/09/13 00:53:25;;;;;;;3.33;2.40;;;20.30;97.60;;;;;;5013681;28;20577;-74
2022/09/13 00:56:10;;;;;;;4.13;1.90;;;20.30;97.70;;;;;;5013862;28;20562;-73
2022/09/13 00:58:40;;;;;;;2.53;1.87;;;20.20;97.90;;;;;;4993134;28;20667;-73
2022/09/13 01:01:10;;;;;;;4.37;2.50;;;20.30;97.90;;;;;;5009556;28;20602;-73
2022/09/13 01:03:38;;;;;;;2.73;2.00;;;20.20;98.00;;;;;;5013818;28;21126;-73
2022/09/13 01:06:08;;;;;;;3.07;1.70;;;20.30;98.00;;;;;;5013568;28;20631;-73
2022/09/13 01:08:37;;;;;;;2.93;2.00;;;20.20;98.10;;;;;;4997784;28;20578;-73
2022/09/13 01:11:10;;;;;;;2.87;2.20;;;20.20;98.20;;;;;;4993545;28;20652;-73
2022/09/13 01:13:37;;;;;;;2.50;1.77;;;20.20;98.30;;;;;;4994161;28;21184;-73
2022/09/13 01:16:04;;;;;;;3.53;2.30;;;20.20;98.70;;;;;;4993922;28;20578;-73
2022/09/13 01:18:29;;;;;;;3.30;1.80;;;20.20;98.50;;;;;;4975983;28;20574;-74
2022/09/13 01:21:01;;;;;;;2.90;1.70;;;20.20;98.60;;;;;;4972668;28;20959;-74
2022/09/13 01:23:46;;;;;;;4.10;2.90;;;20.10;98.80;;;;;;4992757;28;20164;-74
2022/09/13 01:26:29;;;;;;;2.57;2.07;;;20.10;98.80;;;;;;4993708;28;20569;-74
2022/09/13 01:29:14;;;;;;;3.10;1.80;;;20.10;99.10;;;;;;4972274;28;20648;-73
2022/09/13 01:31:52;;;;;;;3.13;2.30;;;20.00;99.20;;;;;;4993505;28;20594;-74
2022/09/13 01:34:27;;;;;;;4.13;2.30;;;20.00;99.30;;;;;;4993422;28;20928;-74
2022/09/13 01:37:11;;;;;;;3.07;2.20;;;20.00;99.80;;;;;;4993322;28;20577;-74
2022/09/13 01:39:54;;;;;;;4.27;2.30;;;20.00;99.70;;;;;;4992956;28;20585;-75
2022/09/13 01:42:46;;;;;;;2.20;1.93;;;20.00;99.80;;;;;;4993110;28;20598;-74
2022/09/13 01:45:26;;;;;;;2.20;1.77;;;19.90;99.90;;;;;;4973031;28;21189;-74
2022/09/13 01:47:58;;;;;;;3.60;2.30;;;19.90;99.90;;;;;;4993225;28;21030;-74
2022/09/13 01:50:37;;;;;;;3.17;2.37;;;19.90;99.90;;;;;;4990339;28;20943;-74
2022/09/13 01:53:16;;;;;;;5.93;3.00;;;19.90;99.90;;;;;;4992863;28;20573;-74
2022/09/13 01:56:08;;;;;;;4.00;2.20;;;20.00;99.90;;;;;;4993146;28;20562;-73
2022/09/13 01:58:43;;;;;;;3.17;2.47;;;20.00;99.90;;;;;;4982531;28;20677;-73
2022/09/13 02:01:22;;;;;;;3.93;2.90;;;20.00;99.90;;;;;;4992415;28;20600;-73
2022/09/13 02:04:03;;;;;;;3.13;1.93;;;20.00;99.90;;;;;;4993093;28;20562;-74
2022/09/13 02:06:41;;;;;;;2.70;2.33;;;20.00;99.90;;;;;;4992836;28;20610;-74
2022/09/13 02:09:12;;;;;;;4.30;2.00;;;20.00;99.90;;;;;;4992727;28;20624;-73
2022/09/13 02:11:41;;;;;;;3.30;1.83;;;20.00;99.90;;;;;;4972067;28;20668;-73
2022/09/13 02:14:21;;;;;;;3.33;2.60;;;19.90;99.90;;;;;;4989297;28;20570;-73
2022/09/13 02:17:03;;;;;;;2.63;2.07;;;19.90;99.90;;;;;;4992740;28;20570;-73
2022/09/13 02:19:42;;;;;;;2.90;1.97;;;19.90;99.90;;;;;;4974626;28;20573;-74
2022/09/13 02:22:12;;;;;;;3.20;2.40;;;19.90;99.90;;;;;;4992422;28;20710;-74
2022/09/13 02:24:41;;;;;;;2.73;1.97;;;19.90;99.90;;;;;;4992590;28;21011;-75
2022/09/13 02:27:10;;;;;;;3.17;1.83;;;19.90;99.90;;;;;;4988013;28;20634;-74
2022/09/13 02:29:39;;;;;;;3.87;2.50;;;19.90;99.90;;;;;;4992240;28;20566;-73
2022/09/13 02:32:31;;;;;;;6.47;2.10;;;19.90;99.90;;;;;;4992124;28;20594;-73
2022/09/13 02:35:04;;;;;;;3.20;2.60;;;19.90;99.90;;;;;;4992439;28;20575;-73
2022/09/13 02:37:33;;;;;;;3.10;2.37;;;19.90;99.90;;;;;;4992455;28;20606;-72
2022/09/13 02:40:16;;;;;;;3.50;1.73;;;20.00;99.90;;;;;;4991967;28;20593;-73
2022/09/13 02:42:49;;;;;;;2.87;2.17;;;20.00;99.90;;;;;;4971704;28;20641;-74
2022/09/13 02:45:15;;;;;;;2.40;1.90;;;20.00;99.90;;;;;;4989616;28;20574;-73
2022/09/13 02:47:58;;;;;;;2.63;1.80;;;20.00;99.90;;;;;;4992173;28;20726;-73
2022/09/13 02:50:42;;;;;;;2.90;2.40;;;20.00;99.90;;;;;;4991830;28;21139;-74
2022/09/13 02:53:16;;;;;;;2.20;1.83;;;20.10;99.90;;;;;;4999557;28;21137;-74
2022/09/13 02:56:04;;;;;;;4.40;1.97;;;20.10;99.90;;;;;;4986276;28;20995;-74
2022/09/13 02:58:37;;;;;;;3.10;2.13;;;20.20;99.90;;;;;;5000204;28;20601;-73
2022/09/13 03:01:03;;;;;;;2.93;2.00;;;20.20;99.90;;;;;;5003473;28;21192;-73
2022/09/13 03:03:29;;;;;;;2.33;2.07;;;20.20;99.90;;;;;;5001010;28;20578;-73
2022/09/13 03:05:55;;;;;;;3.17;2.43;;;20.30;99.90;;;;;;5010552;28;20648;-74
2022/09/13 03:08:22;;;;;;;2.33;1.77;;;20.30;99.90;;;;;;5011704;28;20398;-73
2022/09/13 03:11:09;;;;;;;2.20;1.90;;;20.30;99.90;;;;;;4990523;28;20190;-73
2022/09/13 03:13:48;;;;;;;2.03;1.80;;;20.30;99.90;;;;;;5011825;28;20561;-73
2022/09/13 03:16:35;;;;;;;2.53;1.70;;;20.30;99.90;;;;;;5010736;28;20576;-73
2022/09/13 03:19:13;;;;;;;2.23;1.80;;;20.30;99.90;;;;;;5012168;28;20561;-73
2022/09/13 03:21:57;;;;;;;2.30;2.07;;;20.40;99.90;;;;;;5014198;28;20724;-74
2022/09/13 03:24:33;;;;;;;3.57;2.30;;;20.40;99.90;;;;;;5011404;28;20568;-74
2022/09/13 03:27:33;;;;;;;4.97;1.80;;;20.40;99.90;;;;;;5011312;28;20608;-75
2022/09/13 03:30:07;;;;;;;2.50;1.87;;;20.40;99.90;;;;;;5004136;28;20656;-74
2022/09/13 03:32:48;;;;;;;4.30;2.20;;;20.50;99.90;;;;;;4999673;28;20581;-75
2022/09/13 03:35:53;;;;;;;2.23;1.53;;;20.40;99.90;;;;;;5008851;28;20569;-74
2022/09/13 03:38:26;;;;;;;3.10;2.00;;;20.50;99.90;;;;;;4915704;29;20727;-75
2022/09/13 03:41:15;;;;;;;2.70;2.00;;;20.50;99.90;;;;;;5000361;28;20695;-74
2022/09/13 03:43:43;;;;;;;2.50;1.90;;;20.40;99.90;;;;;;4993727;28;20669;-75
2022/09/13 03:46:14;;;;;;;2.20;1.80;;;20.40;99.90;;;;;;5011107;28;20561;-75
2022/09/13 03:48:41;;;;;;;3.23;1.87;;;20.40;99.90;;;;;;4993947;28;20569;-74
2022/09/13 03:51:08;;;;;;;4.00;2.43;;;20.40;99.90;;;;;;5010742;28;20585;-74
2022/09/13 03:53:39;;;;;;;2.70;1.83;;;20.40;99.90;;;;;;5013544;28;20616;-74
2022/09/13 03:56:19;;;;;;;2.10;1.63;;;20.40;99.90;;;;;;5014933;28;20970;-74
2022/09/13 03:58:47;;;;;;;3.23;2.60;;;20.40;99.90;;;;;;5006224;28;20645;-73
2022/09/13 04:01:12;;;;;;;2.80;2.03;;;20.40;99.90;;;;;;5009741;28;20605;-74
2022/09/13 04:03:39;;;;;;;2.37;1.97;;;20.40;99.90;;;;;;5014796;28;20611;-74
2022/09/13 04:06:05;;;;;;;2.93;1.80;;;20.30;99.90;;;;;;5010110;28;20202;-74
2022/09/13 04:08:32;;;;;;;2.20;1.53;;;20.40;99.90;;;;;;5014365;28;20659;-72
2022/09/13 04:10:58;;;;;;;2.40;1.97;;;20.40;99.90;;;;;;5009843;28;20637;-73
2022/09/13 04:13:24;;;;;;;2.17;1.90;;;20.40;99.90;;;;;;4995708;28;20570;-73
2022/09/13 04:15:50;;;;;;;2.30;1.70;;;20.40;99.90;;;;;;5014563;28;20565;-73
2022/09/13 04:18:16;;;;;;;2.63;2.03;;;20.40;99.90;;;;;;5014293;28;20565;-74
2022/09/13 04:20:42;;;;;;;2.33;1.90;;;20.50;99.90;;;;;;4993490;28;20198;-74
2022/09/13 04:23:08;;;;;;;1.90;1.70;;;20.50;99.90;;;;;;5010840;28;20174;-74
2022/09/13 04:25:36;;;;;;;2.40;2.07;;;20.50;99.90;;;;;;5014485;28;20919;-74
2022/09/13 04:28:02;;;;;;;5.53;2.23;;;20.50;99.90;;;;;;5014169;28;20684;-75
2022/09/13 04:30:28;;;;;;;2.43;1.87;;;20.50;99.90;;;;;;5013985;28;20600;-75
2022/09/13 04:32:58;;;;;;;2.90;2.27;;;20.50;99.90;;;;;;4993282;28;20177;-74
2022/09/13 04:35:24;;;;;;;3.53;2.60;;;20.50;99.90;;;;;;5012775;28;20699;-74
2022/09/13 04:37:53;;;;;;;2.93;1.93;;;20.40;99.90;;;;;;5014317;28;20574;-75
2022/09/13 04:40:20;;;;;;;2.40;1.97;;;20.40;99.90;;;;;;4978020;28;20645;-75
2022/09/13 04:42:46;;;;;;;4.40;1.97;;;20.40;99.90;;;;;;5013821;28;20573;-75
2022/09/13 04:45:12;;;;;;;3.33;2.30;;;20.50;99.90;;;;;;5013793;28;20930;-74
2022/09/13 04:47:38;;;;;;;3.53;2.10;;;20.40;99.90;;;;;;5014002;28;20244;-75
2022/09/13 04:50:04;;;;;;;5.63;2.30;;;20.40;99.90;;;;;;5009100;28;20570;-74
2022/09/13 04:52:29;;;;;;;3.23;1.97;;;20.40;99.90;;;;;;5013220;28;20175;-74
2022/09/13 04:54:59;;;;;;;2.50;2.00;;;20.40;99.90;;;;;;5013645;28;21106;-74
2022/09/13 04:57:25;;;;;;;2.70;1.87;;;20.40;99.90;;;;;;5013919;28;20174;-75
2022/09/13 04:59:50;;;;;;;2.60;2.10;;;20.40;99.90;;;;;;4995918;28;20588;-74
2022/09/13 05:02:16;;;;;;;2.53;1.80;;;20.50;99.90;;;;;;5013518;28;20170;-74
2022/09/13 05:04:42;;;;;;;1.90;1.30;;;20.40;99.90;;;;;;5012302;28;20194;-74
2022/09/13 05:07:07;;;;;;;5.30;2.50;;;20.40;99.90;;;;;;5013380;28;20209;-74
2022/09/13 05:09:33;;;;;;;3.20;1.50;;;20.50;99.90;;;;;;5013426;28;20265;-74
2022/09/13 05:11:59;;;;;;;3.23;1.60;;;20.50;99.90;;;;;;5013113;28;20225;-75
2022/09/13 05:14:25;;;;;;;2.90;2.60;;;20.50;99.90;;;;;;5013564;28;20209;-74
2022/09/13 05:16:50;;;;;;;5.13;2.30;;;20.50;99.90;;;;;;5013431;28;20174;-74
2022/09/13 05:19:16;;;;;;;4.00;1.80;;;20.50;99.90;;;;;;5013015;28;20170;-74
2022/09/13 05:21:42;;;;;;;3.23;1.70;;;20.50;99.90;;;;;;5013075;28;20190;-74
2022/09/13 05:24:08;;;;;;;3.30;1.60;;;20.50;99.90;;;;;;4992618;28;20566;-74
2022/09/13 05:26:34;;;;;;;2.97;2.33;;;20.50;99.90;;;;;;4992238;28;20281;-73
2022/09/13 05:29:00;;;;;;;2.53;2.10;;;20.50;99.90;;;;;;5008663;28;20581;-74
2022/09/13 05:31:32;;;;;;;9.90;2.27;;;20.50;99.90;;;;;;5012806;28;21017;-74
2022/09/13 05:34:03;;;;;;;3.37;2.57;;;20.50;99.90;;;;;;5013058;28;20568;-73
2022/09/13 05:36:29;;;;;;;2.63;2.30;;;20.50;99.90;;;;;;5013079;28;20692;-74
2022/09/13 05:38:56;;;;;;;2.70;2.10;;;20.50;99.90;;;;;;5012810;28;20668;-74
2022/09/13 05:41:22;;;;;;;4.13;2.80;;;20.50;99.90;;;;;;5005471;28;20622;-75
2022/09/13 05:43:48;;;;;;;2.47;2.27;;;20.50;99.90;;;;;;4993404;28;20593;-74
2022/09/13 05:46:16;;;;;;;3.53;2.60;;;20.50;99.90;;;;;;4993447;28;20574;-74
2022/09/13 05:48:43;;;;;;;3.90;2.50;;;20.50;99.90;;;;;;4956591;28;20168;-74
2022/09/13 05:51:14;;;;;;;3.70;2.53;;;20.50;99.90;;;;;;4989602;28;20605;-74
2022/09/13 05:53:43;;;;;;;3.70;2.83;;;20.50;99.90;;;;;;4993108;28;20637;-74
2022/09/13 05:56:12;;;;;;;4.47;1.90;;;20.50;99.90;;;;;;4993049;28;20574;-74
2022/09/13 05:58:39;;;;;;;3.50;2.50;;;20.50;99.90;;;;;;4993035;28;20645;-75
2022/09/13 06:01:05;;;;;;;3.97;2.70;;;20.50;99.90;;;;;;4991187;28;21201;-75
2022/09/13 06:03:31;;;;;;;4.63;2.47;;;20.50;99.90;;;;;;4994548;28;21040;-75
2022/09/13 06:05:57;;;;;;;5.60;2.80;;;20.50;99.90;;;;;;5007696;28;20613;-74
2022/09/13 06:08:28;;;;;;;2.53;2.33;;;20.50;99.90;;;;;;5012430;28;20213;-74
2022/09/13 06:10:58;;;;;;;4.83;3.17;;;20.50;99.90;;;;;;5012031;28;21015;-75
2022/09/13 06:13:24;;;;;;;3.43;2.80;;;20.50;99.90;;;;;;5012209;28;20608;-75
2022/09/13 06:15:51;;;;;;;3.50;2.10;;;20.50;99.90;;;;;;5011908;28;20576;-76
2022/09/13 06:18:18;;;;;;;3.40;2.40;;;20.60;99.90;;;;;;4985961;28;20715;-76
2022/09/13 06:20:44;;;;;;;3.33;2.70;;;20.60;99.90;;;;;;4992232;28;20966;-76
2022/09/13 06:23:09;;;;;;;3.00;2.23;;;20.60;99.90;;;;;;4993064;28;20596;-76
2022/09/13 06:25:36;;;;;;;4.97;2.87;;;20.70;99.90;;;;;;4993059;28;20665;-76
2022/09/13 06:28:02;;;;;;;4.07;2.00;;;20.70;99.90;;;;;;4992682;28;20219;-75
2022/09/13 06:30:28;;;;;;;4.77;2.50;;;20.80;99.90;;;;;;4973978;28;20606;-75
2022/09/13 06:32:57;;;;;;;4.13;2.70;;;20.80;99.90;;;;;;4991967;28;20905;-75
2022/09/13 06:35:23;;;;;;;3.40;3.03;;;20.80;99.90;;;;;;4973703;28;20268;-75
2022/09/13 06:37:49;;;;;;;3.30;3.00;;;20.80;99.90;;;;;;4992247;28;20609;-75
2022/09/13 06:40:15;;;;;;;4.83;2.60;;;20.80;99.90;;;;;;4991949;28;20210;-75
2022/09/13 06:42:41;;;;;;;5.10;3.23;;;20.80;99.90;;;;;;4992134;28;20949;-75
2022/09/13 06:45:08;;;;;;;3.90;2.87;;;20.90;99.90;;;;;;4990820;28;21034;-74
2022/09/13 06:47:34;;;;;;;3.20;2.50;;;20.90;99.90;;;;;;4994379;28;20635;-74
2022/09/13 06:50:00;;;;;;;4.00;2.20;;;21.00;99.90;;;;;;4991790;28;20605;-73
2022/09/13 06:52:27;;;;;;;2.47;2.10;;;21.10;99.90;;;;;;4991992;28;20562;-74
2022/09/13 06:54:53;;;;;;;5.40;2.00;;;21.20;99.90;;;;;;4992157;28;20617;-74
2022/09/13 06:57:19;;;;;;;3.07;2.70;;;21.20;99.90;;;;;;4992064;28;20716;-74
2022/09/13 06:59:45;;;;;;;3.73;2.20;;;21.30;99.90;;;;;;4991659;28;21127;-74
2022/09/13 07:02:13;;;;;;;2.40;1.77;;;21.30;99.90;;;;;;4991885;28;20665;-74
2022/09/13 07:04:39;;;;;;;2.97;2.27;;;21.40;99.90;;;;;;4971466;28;20275;-73
2022/09/13 07:07:04;;;;;;;2.77;2.00;;;21.50;99.90;;;;;;4987546;28;20721;-74
2022/09/13 07:09:30;;;;;;;2.73;2.00;;;21.60;99.90;;;;;;4991295;28;20167;-74
2022/09/13 07:11:56;;;;;;;3.53;2.17;;;21.70;99.90;;;;;;4990127;28;20602;-72
2022/09/13 07:14:24;;;;;;;3.57;2.20;;;21.80;99.90;;;;;;4987494;28;20239;-73
2022/09/13 07:16:50;;;;;;;2.30;1.63;;;21.90;99.90;;;;;;4988346;28;20589;-74
2022/09/13 07:19:25;;;;;;;3.17;2.37;;;22.00;99.90;;;;;;4993570;28;20574;-73
2022/09/13 07:21:51;;;;;;;2.97;2.00;;;22.10;99.90;;;;;;4972200;28;20618;-74
2022/09/13 07:24:18;;;;;;;4.63;2.57;;;22.20;99.90;;;;;;4972737;28;20571;-73
2022/09/13 07:26:45;;;;;;;5.73;2.53;;;22.30;99.90;;;;;;4980163;28;20631;-73
2022/09/13 07:29:15;;;;;;;5.33;3.63;;;22.40;99.90;;;;;;4992355;28;20958;-73
2022/09/13 07:31:46;;;;;;;4.77;3.10;;;22.40;99.90;;;;;;4995474;28;20940;-73
2022/09/13 07:34:23;;;;;;;2.60;2.30;;;22.50;99.90;;;;;;4992080;28;21044;-73
2022/09/13 07:36:51;;;;;;;6.90;2.50;;;22.70;99.90;;;;;;4997059;28;20596;-74
2022/09/13 07:39:20;;;;;;;5.83;2.37;;;22.80;99.90;;;;;;4976019;28;20575;-73
2022/09/13 07:41:46;;;;;;;3.17;2.30;;;22.90;99.90;;;;;;4994264;28;20641;-73
2022/09/13 07:44:15;;;;;;;3.20;2.07;;;23.10;99.90;;;;;;4995721;28;20972;-74
2022/09/13 07:46:42;;;;;;;3.30;2.40;;;23.30;99.90;;;;;;4995828;28;21048;-73
2022/09/13 07:49:10;;;;;;;4.30;2.23;;;23.40;99.90;;;;;;4995622;28;20620;-73
2022/09/13 07:51:38;;;;;;;3.83;2.60;;;23.50;99.90;;;;;;4995056;28;20598;-73
2022/09/13 07:54:09;;;;;;;4.13;2.50;;;23.60;99.90;;;;;;4995357;28;20574;-73
2022/09/13 07:56:37;;;;;;;3.00;2.40;;;23.80;99.90;;;;;;4995380;28;20578;-73
2022/09/13 07:59:05;;;;;;;3.17;2.60;;;24.00;99.90;;;;;;4995454;28;20589;-73
2022/09/13 08:01:37;;;;;;;2.50;2.20;;;24.10;99.90;;;;;;4974004;28;20602;-73
2022/09/13 08:04:05;;;;;;;4.23;2.80;;;24.20;99.90;;;;;;4991091;28;20577;-73
2022/09/13 08:06:33;;;;;;;2.87;2.23;;;24.20;99.90;;;;;;4994992;28;20582;-74
2022/09/13 08:08:59;;;;;;;3.50;2.40;;;24.30;99.90;;;;;;4995143;28;20574;-74
2022/09/13 08:11:35;;;;;;;2.90;2.50;;;24.50;99.90;;;;;;4994549;28;21004;-73
2022/09/13 08:14:02;;;;;;;3.53;2.20;;;24.50;99.90;;;;;;4993813;28;20577;-74
2022/09/13 08:16:29;;;;;;;4.03;2.30;;;24.70;99.90;;;;;;4994771;28;20582;-74
2022/09/13 08:18:57;;;;;;;2.30;1.63;;;24.80;99.90;;;;;;4994736;28;20593;-74
2022/09/13 08:21:24;;;;;;;4.40;2.30;;;24.90;99.90;;;;;;4994242;28;20992;-72
2022/09/13 08:23:55;;;;;;;3.60;2.37;;;25.10;99.90;;;;;;4994810;28;21022;-72
2022/09/13 08:26:21;;;;;;;2.80;1.50;;;25.30;99.90;;;;;;4994924;28;20566;-73
2022/09/13 08:28:47;;;;;;;3.40;2.53;;;25.50;99.90;;;;;;4994644;28;20588;-72
2022/09/13 08:31:16;;;;;;;4.00;2.40;;;25.70;99.90;;;;;;4974240;28;20711;-73
2022/09/13 08:33:49;;;;;;;5.53;2.33;;;26.00;99.90;;;;;;4994626;28;20195;-73
2022/09/13 08:36:15;;;;;;;2.83;1.90;;;26.30;99.90;;;;;;4994549;28;20570;-72
2022/09/13 08:39:00;;;;;;;4.80;1.90;;;26.40;99.90;;;;;;4994194;28;20665;-72
2022/09/13 08:41:38;;;;;;;3.00;1.80;;;26.70;99.90;;;;;;4993905;28;21017;-72
2022/09/13 08:44:26;;;;;;;5.57;2.60;;;27.10;99.90;;;;;;4958485;28;20923;-73
2022/09/13 08:47:01;;;;;;;5.40;2.27;;;27.40;99.60;;;;;;4989049;28;20633;-72
2022/09/13 08:49:30;;;;;;;3.50;1.80;;;27.80;99.30;;;;;;4994017;28;20564;-72
2022/09/13 08:52:01;;;;;;;3.00;1.63;;;28.20;98.90;;;;;;4993958;28;20675;-73
2022/09/13 08:54:31;;;;;;;3.83;1.60;;;28.70;99.10;;;;;;4994535;28;20570;-73
2022/09/13 08:57:06;;;;;;;4.83;1.57;;;29.30;98.30;;;;;;4991166;28;20605;-73
2022/09/13 08:59:45;;;;;;;4.00;1.90;;;29.90;97.30;;;;;;4989717;28;20601;-72
2022/09/13 09:02:20;;;;;;;3.50;1.90;;;30.60;96.90;;;;;;4995881;28;20653;-73
2022/09/13 09:05:01;;;;;;;3.10;1.37;;;31.30;96.00;;;;;;4994035;28;20680;-73
2022/09/13 09:07:32;;;;;;;2.23;1.20;;;32.00;95.70;;;;;;4993503;28;20624;-73
2022/09/13 09:10:06;;;;;;;2.97;1.30;;;32.70;92.90;;;;;;4972977;28;20570;-73
2022/09/13 09:13:01;;;;;;;4.57;1.10;;;33.20;91.50;;;;;;4985940;28;20652;-73
2022/09/13 09:15:50;;;;;;;1.97;1.10;;;33.70;90.90;;;;;;4992140;28;20656;-72
2022/09/13 09:18:23;;;;;;;2.73;1.27;;;34.20;88.60;;;;;;4993657;28;20589;-73
2022/09/13 09:20:52;;;;;;;2.40;1.30;;;34.50;82.90;;;;;;4993305;28;20630;-73
2022/09/13 09:23:21;;;;;;;1.90;1.10;;;34.60;79.20;;;;;;4993552;28;20649;-73
2022/09/13 09:25:51;;;;;;;2.30;1.00;;;34.80;76.70;;;;;;4973236;28;20686;-74
2022/09/13 09:28:18;;;;;;;1.93;1.00;;;35.00;75.00;;;;;;4991216;28;20632;-74
2022/09/13 09:31:33;;;;;;;2.23;1.17;;;35.40;74.40;;;;;;4993133;28;20621;-74
2022/09/13 09:34:02;;;;;;;2.47;0.90;;;35.60;74.70;;;;;;4931242;28;20947;-73
2022/09/13 09:36:39;;;;;;;1.90;0.80;;;36.00;71.60;;;;;;4940405;28;20572;-72
2022/09/13 09:39:09;;;;;;;2.17;1.13;;;36.30;69.60;;;;;;4974061;28;20594;-73
2022/09/13 09:41:37;;;;;;;1.60;1.00;;;36.70;70.30;;;;;;4973248;28;20623;-74
2022/09/13 09:44:19;;;;;;;2.17;0.90;;;37.00;67.10;;;;;;4973492;28;20968;-73
2022/09/13 09:46:55;;;;;;;2.27;1.30;;;37.20;65.90;;;;;;4950247;28;20705;-73
2022/09/13 09:52:27;;;;;;;3.80;1.70;;;37.70;62.40;;;;;;4991149;28;20582;-73
2022/09/13 09:55:00;;;;;;;2.60;1.10;;;37.90;60.30;;;;;;4973693;28;20586;-73
2022/09/13 09:58:05;;;;;;;2.43;0.90;;;38.00;59.40;;;;;;4955957;28;20575;-74
2022/09/13 10:00:38;;;;;;;2.53;1.00;;;38.30;60.10;;;;;;4894227;29;20682;-73
2022/09/13 10:03:17;;;;;;;1.50;0.90;;;38.60;59.00;;;;;;4962220;28;20691;-73
2022/09/13 10:05:44;;;;;;;2.20;0.93;;;38.80;57.00;;;;;;4966851;28;20593;-73
2022/09/13 10:08:30;;;;;;;1.70;0.90;;;39.20;57.30;;;;;;4973241;28;20666;-73
2022/09/13 10:11:01;;;;;;;2.63;0.93;;;39.50;56.70;;;;;;4972978;28;20590;-74
2022/09/13 10:13:27;;;;;;;4.57;0.90;;;40.00;55.30;;;;;;4991607;28;21249;-73
2022/09/13 10:15:57;;;;;;;1.90;0.80;;;40.40;54.90;;;;;;4998981;28;20573;-73
2022/09/13 10:18:26;;;;;;;2.40;1.00;;;40.70;53.70;;;;;;5012190;28;20642;-73
2022/09/13 10:21:19;;;;;;;1.80;0.90;;;41.10;52.70;;;;;;5011752;28;20616;-73
2022/09/13 10:23:46;;;;;;;1.67;0.90;;;41.30;51.80;;;;;;4994680;28;20593;-74
2022/09/13 10:26:14;;;;;;;1.60;0.97;;;41.40;50.50;;;;;;5012287;28;20613;-73
2022/09/13 10:29:16;;;;;;;1.90;0.70;;;41.40;50.00;;;;;;5012176;28;20577;-73
2022/09/13 10:31:46;;;;;;;2.00;0.90;;;41.40;50.30;;;;;;4932001;29;20723;-73
2022/09/13 10:34:35;;;;;;;2.33;1.10;;;41.30;48.40;;;;;;4998191;28;20607;-73
2022/09/13 10:37:18;;;;;;;1.93;0.90;;;41.10;47.50;;;;;;5011507;28;20641;-73
2022/09/13 10:40:06;;;;;;;1.57;0.80;;;40.80;47.30;;;;;;5011520;28;20601;-73
2022/09/13 10:42:32;;;;;;;2.10;0.90;;;40.40;46.70;;;;;;5011684;28;20577;-73
2022/09/13 10:45:00;;;;;;;2.23;1.10;;;39.90;46.50;;;;;;4994170;28;20659;-73
2022/09/13 10:47:46;;;;;;;1.60;0.70;;;39.50;46.50;;;;;;4993674;28;20587;-73
2022/09/13 10:50:27;;;;;;;1.60;0.60;;;39.00;46.00;;;;;;4991598;28;20620;-73
2022/09/13 10:52:57;;;;;;;1.97;0.87;;;38.50;46.40;;;;;;4986667;28;20573;-73
2022/09/13 10:55:25;;;;;;;1.90;0.77;;;37.90;46.20;;;;;;4992003;28;20606;-71
2022/09/13 10:58:12;;;;;;;1.93;0.80;;;37.40;46.40;;;;;;4971385;28;21033;-72
2022/09/13 11:00:44;;;;;;;1.83;0.70;;;36.90;46.60;;;;;;4958391;28;20609;-72
2022/09/13 11:03:12;;;;;;;1.70;0.90;;;36.30;46.50;;;;;;4990842;28;20957;-73
2022/09/13 11:06:07;;;;;;;2.40;1.00;;;35.80;47.00;;;;;;4993061;28;20594;-73
2022/09/13 11:08:55;;;;;;;3.27;1.40;;;35.40;47.50;;;;;;4980195;28;20683;-73
2022/09/13 11:11:36;;;;;;;1.90;0.80;;;35.00;48.00;;;;;;4993645;28;20694;-73
2022/09/13 11:14:36;;;;;;;1.60;1.00;;;34.70;48.20;;;;;;5011639;28;20556;-73
2022/09/13 11:17:43;;;;;;;2.47;0.80;;;34.50;48.80;;;;;;4980205;28;20638;-73
2022/09/13 11:20:31;;;;;;;1.90;0.80;;;34.30;49.00;;;;;;4973341;28;20615;-73
2022/09/13 11:23:18;;;;;;;1.60;0.63;;;34.10;49.10;;;;;;4991687;28;20603;-73
2022/09/13 11:26:05;;;;;;;1.70;0.80;;;34.00;49.60;;;;;;4983529;28;20595;-73
2022/09/13 11:28:41;;;;;;;2.63;1.00;;;34.00;49.80;;;;;;5009799;28;21020;-79
2022/09/13 11:31:31;;;;;;;6.60;5.70;;;34.00;49.80;;;;;;5000278;28;21032;-78
2022/09/13 11:34:21;;;;;;;3.70;2.40;;;34.00;49.70;;;;;;4970721;28;21120;-78
2022/09/13 11:37:06;;;;;;;4.73;1.67;;;34.00;49.60;;;;;;4992282;28;20653;-78
2022/09/13 11:39:51;;;;;;;2.40;1.10;;;33.80;49.20;;;;;;4989290;28;20599;-78
2022/09/13 11:42:30;;;;;;;1.63;0.87;;;33.60;49.30;;;;;;4991183;28;20612;-79
2022/09/13 11:45:15;;;;;;;2.90;0.90;;;33.50;49.40;;;;;;4991509;28;20574;-79
2022/09/13 11:47:48;;;;;;;1.40;0.70;;;33.50;50.30;;;;;;4967454;28;20597;-80
2022/09/13 11:50:33;;;;;;;2.30;0.80;;;33.60;50.80;;;;;;4974152;28;20612;-80
2022/09/13 11:53:07;;;;;;;2.10;0.80;;;33.80;50.80;;;;;;4992042;28;20599;-80
2022/09/13 11:55:40;;;;;;;2.17;1.27;;;34.00;50.90;;;;;;4991410;28;20612;-79
2022/09/13 11:58:15;;;;;;;2.00;1.03;;;34.30;51.20;;;;;;4970823;28;21013;-78
2022/09/13 12:00:49;;;;;;;1.83;1.10;;;34.60;50.70;;;;;;4984586;28;20635;-80
2022/09/13 12:03:33;;;;;;;1.73;0.90;;;34.90;50.50;;;;;;4991478;28;20580;-78
2022/09/13 12:06:17;;;;;;;2.23;0.97;;;35.00;49.80;;;;;;4980196;28;20589;-78
2022/09/13 12:09:12;;;;;;;1.93;0.93;;;35.30;50.10;;;;;;4997243;28;20649;-78
2022/09/13 12:11:45;;;;;;;2.57;0.90;;;35.40;49.60;;;;;;4985228;28;20613;-78
2022/09/13 12:14:16;;;;;;;2.17;1.03;;;35.40;49.10;;;;;;4976604;28;20642;-81
2022/09/13 12:16:47;;;;;;;2.90;1.40;;;35.30;48.80;;;;;;4978190;28;20597;-78
2022/09/13 12:19:33;;;;;;;4.60;1.47;;;35.30;49.00;;;;;;4996462;28;20589;-78
2022/09/13 12:22:01;;;;;;;2.70;1.20;;;35.20;48.90;;;;;;4980353;28;20613;-80
2022/09/13 12:24:46;;;;;;;3.20;0.80;;;35.20;49.00;;;;;;4994090;28;20946;-77
2022/09/13 12:27:35;;;;;;;2.50;0.90;;;35.20;48.80;;;;;;4974713;28;20586;-75
2022/09/13 12:30:24;;;;;;;2.80;1.50;;;35.10;48.60;;;;;;4994186;28;20565;-76
2022/09/13 12:32:51;;;;;;;4.30;1.67;;;35.00;48.40;;;;;;4994181;28;20684;-76
2022/09/13 12:35:24;;;;;;;2.30;1.00;;;34.90;48.50;;;;;;4974732;28;20559;-76
2022/09/13 12:38:15;;;;;;;2.17;0.70;;;34.80;48.30;;;;;;4991942;28;20638;-75
2022/09/13 12:40:49;;;;;;;2.07;0.80;;;34.60;47.70;;;;;;4987446;28;20609;-75
2022/09/13 12:43:21;;;;;;;1.80;0.90;;;34.40;48.10;;;;;;4994087;28;20947;-76
2022/09/13 12:45:57;;;;;;;4.13;1.50;;;34.30;48.30;;;;;;4993936;28;20640;-76
2022/09/13 12:48:57;;;;;;;6.47;4.73;;;34.00;47.70;;;;;;4975948;28;20566;-76
2022/09/13 12:51:44;;;;;;;4.83;4.33;;;33.80;48.10;;;;;;4993767;28;20584;-75
2022/09/13 12:54:47;;;;;;;3.20;1.77;;;33.50;48.40;;;;;;4994139;28;20663;-75
2022/09/13 12:57:26;;;;;;;2.10;1.00;;;33.30;48.50;;;;;;4989048;28;20639;-77
2022/09/13 13:00:24;;;;;;;2.00;1.07;;;33.20;48.80;;;;;;4974888;28;20575;-79
2022/09/13 13:03:12;;;;;;;2.33;0.70;;;33.00;48.80;;;;;;4951700;28;20580;-79
2022/09/13 13:05:42;;;;;;;2.53;1.20;;;32.90;49.00;;;;;;4974875;28;20948;-79
2022/09/13 13:08:25;;;;;;;2.67;0.90;;;32.70;48.90;;;;;;4959586;28;20582;-79
2022/09/13 13:11:10;;;;;;;1.50;0.70;;;32.50;49.00;;;;;;4974446;28;20592;-79
2022/09/13 13:13:39;;;;;;;1.70;0.60;;;32.30;49.00;;;;;;4967295;28;20605;-79
2022/09/13 13:16:31;;;;;;;1.60;0.70;;;32.10;49.00;;;;;;4974576;28;20586;-79
2022/09/13 13:19:24;;;;;;;2.00;0.90;;;31.90;49.40;;;;;;4974612;28;20666;-79
2022/09/13 13:21:50;;;;;;;1.43;0.80;;;31.70;49.20;;;;;;4974436;28;20597;-79
2022/09/13 13:24:15;;;;;;;2.40;0.90;;;31.50;49.40;;;;;;4974518;28;20574;-79